sensor_id;sensor_type;location;lat;lon;timestamp;P1;durP1;ratioP1;P2;durP2;ratioP2
76636;SDS011;65532;52.124;5.480;2024-02-15T00:02:21;10.73;;;3.63;;
76636;SDS011;65532;52.124;5.480;2024-02-15T00:04:48;7.97;;;4.03;;
76636;SDS011;65532;52.124;5.480;2024-02-15T00:07:14;8.45;;;4.03;;
76636;SDS011;65532;52.124;5.480;2024-02-15T00:09:41;8.40;;;3.45;;
76636;SDS011;65532;52.124;5.480;2024-02-15T00:12:08;8.95;;;3.15;;
76636;SDS011;65532;52.124;5.480;2024-02-15T00:14:34;8.30;;;3.08;;
76636;SDS011;65532;52.124;5.480;2024-02-15T00:17:01;15.80;;;5.07;;
76636;SDS011;65532;52.124;5.480;2024-02-15T00:19:28;7.65;;;3.35;;
76636;SDS011;65532;52.124;5.480;2024-02-15T00:21:56;11.02;;;3.35;;
76636;SDS011;65532;52.124;5.480;2024-02-15T00:24:23;10.40;;;3.25;;
76636;SDS011;65532;52.124;5.480;2024-02-15T00:26:50;9.82;;;2.83;;
76636;SDS011;65532;52.124;5.480;2024-02-15T00:29:17;6.43;;;2.97;;
76636;SDS011;65532;52.124;5.480;2024-02-15T00:31:44;8.80;;;2.47;;
76636;SDS011;65532;52.124;5.480;2024-02-15T00:34:11;8.70;;;3.45;;
76636;SDS011;65532;52.124;5.480;2024-02-15T00:36:41;9.18;;;3.45;;
76636;SDS011;65532;52.124;5.480;2024-02-15T00:41:35;7.38;;;2.40;;
76636;SDS011;65532;52.124;5.480;2024-02-15T00:44:01;9.93;;;2.60;;
76636;SDS011;65532;52.124;5.480;2024-02-15T00:46:28;7.75;;;3.33;;
76636;SDS011;65532;52.124;5.480;2024-02-15T00:48:55;7.18;;;3.15;;
76636;SDS011;65532;52.124;5.480;2024-02-15T00:51:22;6.03;;;2.58;;
76636;SDS011;65532;52.124;5.480;2024-02-15T00:53:49;9.50;;;2.97;;
76636;SDS011;65532;52.124;5.480;2024-02-15T00:56:15;6.90;;;2.65;;
76636;SDS011;65532;52.124;5.480;2024-02-15T00:58:42;8.45;;;2.65;;
76636;SDS011;65532;52.124;5.480;2024-02-15T01:01:08;5.63;;;2.33;;
76636;SDS011;65532;52.124;5.480;2024-02-15T01:03:35;10.20;;;2.40;;
76636;SDS011;65532;52.124;5.480;2024-02-15T01:06:01;9.18;;;4.50;;
76636;SDS011;65532;52.124;5.480;2024-02-15T01:08:28;7.72;;;2.30;;
76636;SDS011;65532;52.124;5.480;2024-02-15T01:10:55;10.00;;;3.55;;
76636;SDS011;65532;52.124;5.480;2024-02-15T01:13:22;9.50;;;2.88;;
76636;SDS011;65532;52.124;5.480;2024-02-15T01:15:50;6.75;;;2.38;;
76636;SDS011;65532;52.124;5.480;2024-02-15T01:18:16;6.57;;;3.28;;
76636;SDS011;65532;52.124;5.480;2024-02-15T01:20:43;8.00;;;3.08;;
76636;SDS011;65532;52.124;5.480;2024-02-15T01:23:11;7.13;;;3.38;;
76636;SDS011;65532;52.124;5.480;2024-02-15T01:25:37;8.70;;;2.38;;
76636;SDS011;65532;52.124;5.480;2024-02-15T01:28:06;8.27;;;3.38;;
76636;SDS011;65532;52.124;5.480;2024-02-15T01:30:32;10.93;;;4.00;;
76636;SDS011;65532;52.124;5.480;2024-02-15T01:32:59;15.90;;;6.03;;
76636;SDS011;65532;52.124;5.480;2024-02-15T01:35:26;10.07;;;4.35;;
76636;SDS011;65532;52.124;5.480;2024-02-15T01:37:53;12.05;;;5.22;;
76636;SDS011;65532;52.124;5.480;2024-02-15T01:40:20;12.80;;;4.55;;
76636;SDS011;65532;52.124;5.480;2024-02-15T01:42:46;11.50;;;5.45;;
76636;SDS011;65532;52.124;5.480;2024-02-15T01:45:15;13.65;;;5.18;;
76636;SDS011;65532;52.124;5.480;2024-02-15T01:47:42;13.27;;;7.18;;
76636;SDS011;65532;52.124;5.480;2024-02-15T01:50:10;13.35;;;6.15;;
76636;SDS011;65532;52.124;5.480;2024-02-15T01:52:38;18.35;;;8.55;;
76636;SDS011;65532;52.124;5.480;2024-02-15T01:55:07;17.65;;;8.02;;
76636;SDS011;65532;52.124;5.480;2024-02-15T01:57:35;14.27;;;6.63;;
76636;SDS011;65532;52.124;5.480;2024-02-15T02:00:04;14.70;;;7.00;;
76636;SDS011;65532;52.124;5.480;2024-02-15T02:02:34;13.73;;;5.88;;
76636;SDS011;65532;52.124;5.480;2024-02-15T02:05:04;13.15;;;6.32;;
76636;SDS011;65532;52.124;5.480;2024-02-15T02:07:31;16.80;;;6.88;;
76636;SDS011;65532;52.124;5.480;2024-02-15T02:09:58;11.50;;;5.75;;
76636;SDS011;65532;52.124;5.480;2024-02-15T02:12:24;11.70;;;5.38;;
76636;SDS011;65532;52.124;5.480;2024-02-15T02:14:54;15.65;;;5.97;;
76636;SDS011;65532;52.124;5.480;2024-02-15T02:17:20;12.82;;;6.57;;
76636;SDS011;65532;52.124;5.480;2024-02-15T02:19:47;13.65;;;7.10;;
76636;SDS011;65532;52.124;5.480;2024-02-15T02:22:17;10.95;;;5.40;;
76636;SDS011;65532;52.124;5.480;2024-02-15T02:27:29;10.13;;;5.00;;
76636;SDS011;65532;52.124;5.480;2024-02-15T02:29:58;10.75;;;5.10;;
76636;SDS011;65532;52.124;5.480;2024-02-15T02:32:26;11.05;;;4.95;;
76636;SDS011;65532;52.124;5.480;2024-02-15T02:34:53;11.75;;;5.13;;
76636;SDS011;65532;52.124;5.480;2024-02-15T02:39:51;10.50;;;4.93;;
76636;SDS011;65532;52.124;5.480;2024-02-15T02:42:17;11.23;;;5.55;;
76636;SDS011;65532;52.124;5.480;2024-02-15T02:44:44;8.68;;;4.20;;
76636;SDS011;65532;52.124;5.480;2024-02-15T02:47:11;10.52;;;5.35;;
76636;SDS011;65532;52.124;5.480;2024-02-15T02:49:38;10.57;;;5.45;;
76636;SDS011;65532;52.124;5.480;2024-02-15T02:52:05;15.82;;;4.95;;
76636;SDS011;65532;52.124;5.480;2024-02-15T02:54:32;9.15;;;4.25;;
76636;SDS011;65532;52.124;5.480;2024-02-15T02:56:59;14.05;;;5.20;;
76636;SDS011;65532;52.124;5.480;2024-02-15T02:59:26;10.20;;;4.70;;
76636;SDS011;65532;52.124;5.480;2024-02-15T03:01:52;9.70;;;4.20;;
76636;SDS011;65532;52.124;5.480;2024-02-15T03:04:22;8.57;;;4.53;;
76636;SDS011;65532;52.124;5.480;2024-02-15T03:06:49;8.38;;;4.13;;
76636;SDS011;65532;52.124;5.480;2024-02-15T03:09:16;9.63;;;4.47;;
76636;SDS011;65532;52.124;5.480;2024-02-15T03:11:43;9.30;;;4.05;;
76636;SDS011;65532;52.124;5.480;2024-02-15T03:14:09;8.68;;;3.53;;
76636;SDS011;65532;52.124;5.480;2024-02-15T03:16:37;11.63;;;5.00;;
76636;SDS011;65532;52.124;5.480;2024-02-15T03:19:04;10.80;;;4.25;;
76636;SDS011;65532;52.124;5.480;2024-02-15T03:21:31;12.82;;;4.40;;
76636;SDS011;65532;52.124;5.480;2024-02-15T03:23:57;13.48;;;4.70;;
76636;SDS011;65532;52.124;5.480;2024-02-15T03:26:31;11.25;;;4.28;;
76636;SDS011;65532;52.124;5.480;2024-02-15T03:29:06;10.05;;;3.58;;
76636;SDS011;65532;52.124;5.480;2024-02-15T03:31:36;8.77;;;2.78;;
76636;SDS011;65532;52.124;5.480;2024-02-15T03:34:06;9.60;;;3.28;;
76636;SDS011;65532;52.124;5.480;2024-02-15T03:36:32;9.60;;;3.42;;
76636;SDS011;65532;52.124;5.480;2024-02-15T03:38:59;6.95;;;3.38;;
76636;SDS011;65532;52.124;5.480;2024-02-15T03:41:29;8.63;;;4.35;;
76636;SDS011;65532;52.124;5.480;2024-02-15T03:43:59;8.70;;;3.40;;
76636;SDS011;65532;52.124;5.480;2024-02-15T03:46:26;10.02;;;4.32;;
76636;SDS011;65532;52.124;5.480;2024-02-15T03:48:53;8.50;;;3.33;;
76636;SDS011;65532;52.124;5.480;2024-02-15T03:51:20;12.13;;;4.32;;
76636;SDS011;65532;52.124;5.480;2024-02-15T03:53:46;9.57;;;3.75;;
76636;SDS011;65532;52.124;5.480;2024-02-15T03:56:15;9.15;;;3.85;;
76636;SDS011;65532;52.124;5.480;2024-02-15T03:58:42;7.40;;;3.42;;
76636;SDS011;65532;52.124;5.480;2024-02-15T04:01:08;11.80;;;3.17;;
76636;SDS011;65532;52.124;5.480;2024-02-15T04:03:36;6.32;;;2.60;;
76636;SDS011;65532;52.124;5.480;2024-02-15T04:06:03;8.35;;;3.15;;
76636;SDS011;65532;52.124;5.480;2024-02-15T04:08:30;14.63;;;2.65;;
76636;SDS011;65532;52.124;5.480;2024-02-15T04:10:57;10.55;;;2.85;;
76636;SDS011;65532;52.124;5.480;2024-02-15T04:13:23;6.95;;;2.47;;
76636;SDS011;65532;52.124;5.480;2024-02-15T04:15:50;6.05;;;2.60;;
76636;SDS011;65532;52.124;5.480;2024-02-15T04:18:19;6.88;;;3.05;;
76636;SDS011;65532;52.124;5.480;2024-02-15T04:20:46;7.78;;;2.83;;
76636;SDS011;65532;52.124;5.480;2024-02-15T04:23:12;10.50;;;2.78;;
76636;SDS011;65532;52.124;5.480;2024-02-15T04:25:39;11.10;;;3.25;;
76636;SDS011;65532;52.124;5.480;2024-02-15T04:28:07;9.77;;;2.72;;
76636;SDS011;65532;52.124;5.480;2024-02-15T04:30:35;6.88;;;3.88;;
76636;SDS011;65532;52.124;5.480;2024-02-15T04:33:04;11.20;;;3.00;;
76636;SDS011;65532;52.124;5.480;2024-02-15T04:35:34;7.07;;;2.30;;
76636;SDS011;65532;52.124;5.480;2024-02-15T04:38:01;7.90;;;3.03;;
76636;SDS011;65532;52.124;5.480;2024-02-15T04:40:29;5.25;;;2.85;;
76636;SDS011;65532;52.124;5.480;2024-02-15T04:42:56;6.38;;;2.38;;
76636;SDS011;65532;52.124;5.480;2024-02-15T04:45:24;7.13;;;2.97;;
76636;SDS011;65532;52.124;5.480;2024-02-15T04:47:52;6.15;;;2.40;;
76636;SDS011;65532;52.124;5.480;2024-02-15T04:50:19;5.40;;;2.20;;
76636;SDS011;65532;52.124;5.480;2024-02-15T04:52:47;9.23;;;2.90;;
76636;SDS011;65532;52.124;5.480;2024-02-15T04:55:15;5.63;;;2.13;;
76636;SDS011;65532;52.124;5.480;2024-02-15T04:57:42;4.75;;;2.20;;
76636;SDS011;65532;52.124;5.480;2024-02-15T05:00:08;10.00;;;3.05;;
76636;SDS011;65532;52.124;5.480;2024-02-15T05:02:38;9.02;;;2.70;;
76636;SDS011;65532;52.124;5.480;2024-02-15T05:05:10;9.20;;;2.08;;
76636;SDS011;65532;52.124;5.480;2024-02-15T05:07:36;6.20;;;2.70;;
76636;SDS011;65532;52.124;5.480;2024-02-15T05:10:06;7.30;;;3.42;;
76636;SDS011;65532;52.124;5.480;2024-02-15T05:12:33;10.65;;;2.13;;
76636;SDS011;65532;52.124;5.480;2024-02-15T05:15:00;9.05;;;2.40;;
76636;SDS011;65532;52.124;5.480;2024-02-15T05:17:27;6.50;;;2.42;;
76636;SDS011;65532;52.124;5.480;2024-02-15T05:19:56;7.47;;;2.50;;
76636;SDS011;65532;52.124;5.480;2024-02-15T05:22:25;9.50;;;2.38;;
76636;SDS011;65532;52.124;5.480;2024-02-15T05:24:55;7.05;;;2.95;;
76636;SDS011;65532;52.124;5.480;2024-02-15T05:27:21;9.23;;;2.80;;
76636;SDS011;65532;52.124;5.480;2024-02-15T05:29:49;11.00;;;2.28;;
76636;SDS011;65532;52.124;5.480;2024-02-15T05:32:19;6.22;;;2.38;;
76636;SDS011;65532;52.124;5.480;2024-02-15T05:34:46;8.52;;;2.45;;
76636;SDS011;65532;52.124;5.480;2024-02-15T05:37:14;6.15;;;1.92;;
76636;SDS011;65532;52.124;5.480;2024-02-15T05:39:42;7.45;;;2.88;;
76636;SDS011;65532;52.124;5.480;2024-02-15T05:42:08;10.30;;;2.50;;
76636;SDS011;65532;52.124;5.480;2024-02-15T05:44:36;3.55;;;2.17;;
76636;SDS011;65532;52.124;5.480;2024-02-15T05:47:03;7.50;;;2.60;;
76636;SDS011;65532;52.124;5.480;2024-02-15T05:49:30;15.48;;;3.63;;
76636;SDS011;65532;52.124;5.480;2024-02-15T05:51:56;5.32;;;2.17;;
76636;SDS011;65532;52.124;5.480;2024-02-15T05:54:23;9.27;;;3.05;;
76636;SDS011;65532;52.124;5.480;2024-02-15T05:56:50;8.50;;;2.38;;
76636;SDS011;65532;52.124;5.480;2024-02-15T05:59:19;6.45;;;2.35;;
76636;SDS011;65532;52.124;5.480;2024-02-15T06:01:47;6.90;;;2.80;;
76636;SDS011;65532;52.124;5.480;2024-02-15T06:04:16;9.13;;;2.30;;
76636;SDS011;65532;52.124;5.480;2024-02-15T06:06:43;6.25;;;2.60;;
76636;SDS011;65532;52.124;5.480;2024-02-15T06:09:10;5.80;;;2.60;;
76636;SDS011;65532;52.124;5.480;2024-02-15T06:11:36;7.40;;;3.15;;
76636;SDS011;65532;52.124;5.480;2024-02-15T06:14:04;7.47;;;2.53;;
76636;SDS011;65532;52.124;5.480;2024-02-15T06:16:32;4.85;;;2.78;;
76636;SDS011;65532;52.124;5.480;2024-02-15T06:18:59;4.85;;;2.10;;
76636;SDS011;65532;52.124;5.480;2024-02-15T06:21:26;6.53;;;2.70;;
76636;SDS011;65532;52.124;5.480;2024-02-15T06:23:52;7.38;;;3.00;;
76636;SDS011;65532;52.124;5.480;2024-02-15T06:26:19;9.02;;;3.08;;
76636;SDS011;65532;52.124;5.480;2024-02-15T06:28:47;7.10;;;3.63;;
76636;SDS011;65532;52.124;5.480;2024-02-15T06:31:32;10.48;;;3.42;;
76636;SDS011;65532;52.124;5.480;2024-02-15T06:34:16;5.70;;;2.50;;
76636;SDS011;65532;52.124;5.480;2024-02-15T06:37:02;6.47;;;2.22;;
76636;SDS011;65532;52.124;5.480;2024-02-15T06:39:47;5.38;;;2.95;;
76636;SDS011;65532;52.124;5.480;2024-02-15T06:42:15;8.35;;;3.25;;
76636;SDS011;65532;52.124;5.480;2024-02-15T06:44:43;7.55;;;2.85;;
76636;SDS011;65532;52.124;5.480;2024-02-15T06:47:11;6.55;;;1.88;;
76636;SDS011;65532;52.124;5.480;2024-02-15T06:49:41;7.18;;;2.95;;
76636;SDS011;65532;52.124;5.480;2024-02-15T06:54:35;8.35;;;2.72;;
76636;SDS011;65532;52.124;5.480;2024-02-15T06:57:04;5.65;;;2.47;;
76636;SDS011;65532;52.124;5.480;2024-02-15T06:59:31;7.60;;;2.80;;
76636;SDS011;65532;52.124;5.480;2024-02-15T07:01:58;6.32;;;3.15;;
76636;SDS011;65532;52.124;5.480;2024-02-15T07:04:26;8.40;;;2.55;;
76636;SDS011;65532;52.124;5.480;2024-02-15T07:06:53;8.18;;;3.08;;
76636;SDS011;65532;52.124;5.480;2024-02-15T07:09:21;8.13;;;3.92;;
76636;SDS011;65532;52.124;5.480;2024-02-15T07:11:53;9.32;;;2.58;;
76636;SDS011;65532;52.124;5.480;2024-02-15T07:14:20;7.68;;;2.92;;
76636;SDS011;65532;52.124;5.480;2024-02-15T07:16:47;6.90;;;2.78;;
76636;SDS011;65532;52.124;5.480;2024-02-15T07:19:15;7.45;;;3.63;;
76636;SDS011;65532;52.124;5.480;2024-02-15T07:21:42;7.85;;;3.50;;
76636;SDS011;65532;52.124;5.480;2024-02-15T07:24:08;9.43;;;3.60;;
76636;SDS011;65532;52.124;5.480;2024-02-15T07:26:36;4.70;;;2.47;;
76636;SDS011;65532;52.124;5.480;2024-02-15T07:29:03;7.65;;;2.97;;
76636;SDS011;65532;52.124;5.480;2024-02-15T07:31:34;6.25;;;2.67;;
76636;SDS011;65532;52.124;5.480;2024-02-15T07:34:01;6.15;;;2.38;;
76636;SDS011;65532;52.124;5.480;2024-02-15T07:36:28;5.70;;;3.85;;
76636;SDS011;65532;52.124;5.480;2024-02-15T07:38:55;8.05;;;3.13;;
76636;SDS011;65532;52.124;5.480;2024-02-15T07:41:27;5.70;;;2.95;;
76636;SDS011;65532;52.124;5.480;2024-02-15T07:43:54;10.77;;;3.45;;
76636;SDS011;65532;52.124;5.480;2024-02-15T07:46:21;7.93;;;3.60;;
76636;SDS011;65532;52.124;5.480;2024-02-15T07:48:48;6.45;;;3.65;;
76636;SDS011;65532;52.124;5.480;2024-02-15T07:51:19;6.10;;;2.90;;
76636;SDS011;65532;52.124;5.480;2024-02-15T07:53:48;5.45;;;3.33;;
76636;SDS011;65532;52.124;5.480;2024-02-15T07:56:16;5.10;;;2.80;;
76636;SDS011;65532;52.124;5.480;2024-02-15T07:58:44;5.22;;;2.63;;
76636;SDS011;65532;52.124;5.480;2024-02-15T08:01:18;5.07;;;2.38;;
76636;SDS011;65532;52.124;5.480;2024-02-15T08:03:51;7.25;;;2.22;;
76636;SDS011;65532;52.124;5.480;2024-02-15T08:06:19;5.60;;;2.42;;
76636;SDS011;65532;52.124;5.480;2024-02-15T08:08:46;8.00;;;2.58;;
76636;SDS011;65532;52.124;5.480;2024-02-15T08:11:13;4.00;;;2.20;;
76636;SDS011;65532;52.124;5.480;2024-02-15T08:13:44;4.70;;;2.90;;
76636;SDS011;65532;52.124;5.480;2024-02-15T08:16:12;4.78;;;1.88;;
76636;SDS011;65532;52.124;5.480;2024-02-15T08:18:42;4.35;;;2.35;;
76636;SDS011;65532;52.124;5.480;2024-02-15T08:21:13;7.38;;;2.03;;
76636;SDS011;65532;52.124;5.480;2024-02-15T08:23:41;4.53;;;2.15;;
76636;SDS011;65532;52.124;5.480;2024-02-15T08:26:07;3.70;;;2.05;;
76636;SDS011;65532;52.124;5.480;2024-02-15T08:28:37;4.72;;;1.73;;
76636;SDS011;65532;52.124;5.480;2024-02-15T08:31:03;4.22;;;2.22;;
76636;SDS011;65532;52.124;5.480;2024-02-15T08:33:30;7.72;;;1.95;;
76636;SDS011;65532;52.124;5.480;2024-02-15T08:35:57;4.90;;;1.55;;
76636;SDS011;65532;52.124;5.480;2024-02-15T08:38:24;3.38;;;1.60;;
76636;SDS011;65532;52.124;5.480;2024-02-15T08:40:51;4.72;;;1.45;;
76636;SDS011;65532;52.124;5.480;2024-02-15T08:43:18;4.88;;;2.83;;
76636;SDS011;65532;52.124;5.480;2024-02-15T08:45:44;4.68;;;1.75;;
76636;SDS011;65532;52.124;5.480;2024-02-15T08:48:11;2.80;;;0.93;;
76636;SDS011;65532;52.124;5.480;2024-02-15T08:50:38;3.60;;;1.33;;
76636;SDS011;65532;52.124;5.480;2024-02-15T08:53:05;2.20;;;0.80;;
76636;SDS011;65532;52.124;5.480;2024-02-15T08:55:33;3.85;;;1.40;;
76636;SDS011;65532;52.124;5.480;2024-02-15T08:58:02;2.40;;;1.15;;
76636;SDS011;65532;52.124;5.480;2024-02-15T09:00:30;2.20;;;0.73;;
76636;SDS011;65532;52.124;5.480;2024-02-15T09:02:56;2.95;;;1.15;;
76636;SDS011;65532;52.124;5.480;2024-02-15T09:05:23;4.85;;;1.20;;
76636;SDS011;65532;52.124;5.480;2024-02-15T09:07:51;2.70;;;0.77;;
76636;SDS011;65532;52.124;5.480;2024-02-15T09:10:18;3.65;;;2.08;;
76636;SDS011;65532;52.124;5.480;2024-02-15T09:12:45;2.38;;;1.05;;
76636;SDS011;65532;52.124;5.480;2024-02-15T09:15:15;3.10;;;1.55;;
76636;SDS011;65532;52.124;5.480;2024-02-15T09:17:42;2.90;;;1.55;;
76636;SDS011;65532;52.124;5.480;2024-02-15T09:20:14;1.92;;;0.45;;
76636;SDS011;65532;52.124;5.480;2024-02-15T09:22:46;5.13;;;0.93;;
76636;SDS011;65532;52.124;5.480;2024-02-15T09:25:14;2.28;;;0.60;;
76636;SDS011;65532;52.124;5.480;2024-02-15T09:27:41;2.20;;;0.52;;
76636;SDS011;65532;52.124;5.480;2024-02-15T09:30:08;3.00;;;0.82;;
76636;SDS011;65532;52.124;5.480;2024-02-15T09:32:36;3.38;;;0.63;;
76636;SDS011;65532;52.124;5.480;2024-02-15T09:35:03;2.30;;;0.75;;
76636;SDS011;65532;52.124;5.480;2024-02-15T09:37:34;2.03;;;0.63;;
76636;SDS011;65532;52.124;5.480;2024-02-15T09:40:01;2.75;;;0.90;;
76636;SDS011;65532;52.124;5.480;2024-02-15T09:42:32;2.65;;;0.82;;
76636;SDS011;65532;52.124;5.480;2024-02-15T09:45:02;5.32;;;1.45;;
76636;SDS011;65532;52.124;5.480;2024-02-15T09:47:31;2.17;;;0.77;;
76636;SDS011;65532;52.124;5.480;2024-02-15T09:50:02;4.13;;;1.23;;
76636;SDS011;65532;52.124;5.480;2024-02-15T09:52:32;5.57;;;0.90;;
76636;SDS011;65532;52.124;5.480;2024-02-15T09:55:02;4.78;;;1.27;;
76636;SDS011;65532;52.124;5.480;2024-02-15T09:57:30;4.65;;;1.15;;
76636;SDS011;65532;52.124;5.480;2024-02-15T10:00:03;5.07;;;1.17;;
76636;SDS011;65532;52.124;5.480;2024-02-15T10:02:34;2.75;;;1.23;;
76636;SDS011;65532;52.124;5.480;2024-02-15T10:05:02;5.53;;;1.42;;
76636;SDS011;65532;52.124;5.480;2024-02-15T10:07:29;4.60;;;1.48;;
76636;SDS011;65532;52.124;5.480;2024-02-15T10:09:56;5.65;;;1.27;;
76636;SDS011;65532;52.124;5.480;2024-02-15T10:12:36;3.78;;;1.45;;
76636;SDS011;65532;52.124;5.480;2024-02-15T10:15:03;3.05;;;0.93;;
76636;SDS011;65532;52.124;5.480;2024-02-15T10:17:33;4.72;;;0.93;;
76636;SDS011;65532;52.124;5.480;2024-02-15T10:20:05;7.60;;;2.17;;
76636;SDS011;65532;52.124;5.480;2024-02-15T10:22:32;3.55;;;1.20;;
76636;SDS011;65532;52.124;5.480;2024-02-15T10:25:10;5.53;;;1.77;;
76636;SDS011;65532;52.124;5.480;2024-02-15T10:27:38;6.65;;;2.08;;
76636;SDS011;65532;52.124;5.480;2024-02-15T10:30:16;7.00;;;1.13;;
76636;SDS011;65532;52.124;5.480;2024-02-15T10:32:44;4.40;;;0.95;;
76636;SDS011;65532;52.124;5.480;2024-02-15T10:35:20;5.40;;;1.35;;
76636;SDS011;65532;52.124;5.480;2024-02-15T10:37:50;2.95;;;1.45;;
76636;SDS011;65532;52.124;5.480;2024-02-15T10:40:17;4.55;;;0.82;;
76636;SDS011;65532;52.124;5.480;2024-02-15T10:42:46;8.00;;;1.58;;
76636;SDS011;65532;52.124;5.480;2024-02-15T10:45:14;6.93;;;1.23;;
76636;SDS011;65532;52.124;5.480;2024-02-15T10:47:44;6.15;;;1.48;;
76636;SDS011;65532;52.124;5.480;2024-02-15T10:50:14;3.90;;;1.05;;
76636;SDS011;65532;52.124;5.480;2024-02-15T10:55:48;4.93;;;1.55;;
76636;SDS011;65532;52.124;5.480;2024-02-15T10:58:24;4.57;;;1.52;;
76636;SDS011;65532;52.124;5.480;2024-02-15T11:00:55;4.13;;;1.13;;
76636;SDS011;65532;52.124;5.480;2024-02-15T11:03:25;6.35;;;1.10;;
76636;SDS011;65532;52.124;5.480;2024-02-15T11:06:02;7.13;;;1.50;;
76636;SDS011;65532;52.124;5.480;2024-02-15T11:08:33;4.50;;;1.25;;
76636;SDS011;65532;52.124;5.480;2024-02-15T11:11:00;4.75;;;1.90;;
76636;SDS011;65532;52.124;5.480;2024-02-15T11:13:31;4.35;;;1.05;;
76636;SDS011;65532;52.124;5.480;2024-02-15T11:15:57;4.40;;;1.63;;
76636;SDS011;65532;52.124;5.480;2024-02-15T11:21:20;5.88;;;1.67;;
76636;SDS011;65532;52.124;5.480;2024-02-15T11:24:27;4.55;;;1.67;;
76636;SDS011;65532;52.124;5.480;2024-02-15T11:27:00;3.90;;;1.20;;
76636;SDS011;65532;52.124;5.480;2024-02-15T11:30:03;4.45;;;1.60;;
76636;SDS011;65532;52.124;5.480;2024-02-15T11:35:18;4.20;;;1.83;;
76636;SDS011;65532;52.124;5.480;2024-02-15T11:40:21;5.45;;;4.57;;
76636;SDS011;65532;52.124;5.480;2024-02-15T11:42:53;4.82;;;1.80;;
76636;SDS011;65532;52.124;5.480;2024-02-15T11:45:21;5.00;;;1.25;;
76636;SDS011;65532;52.124;5.480;2024-02-15T11:47:49;7.88;;;1.95;;
76636;SDS011;65532;52.124;5.480;2024-02-15T11:50:17;4.35;;;1.02;;
76636;SDS011;65532;52.124;5.480;2024-02-15T11:52:47;4.35;;;1.40;;
76636;SDS011;65532;52.124;5.480;2024-02-15T11:55:18;5.13;;;2.03;;
76636;SDS011;65532;52.124;5.480;2024-02-15T11:57:58;5.57;;;1.73;;
76636;SDS011;65532;52.124;5.480;2024-02-15T12:00:42;4.25;;;1.48;;
76636;SDS011;65532;52.124;5.480;2024-02-15T12:03:28;4.55;;;1.88;;
76636;SDS011;65532;52.124;5.480;2024-02-15T12:06:29;6.38;;;1.77;;
76636;SDS011;65532;52.124;5.480;2024-02-15T12:09:20;4.45;;;1.75;;
76636;SDS011;65532;52.124;5.480;2024-02-15T12:12:06;5.55;;;1.55;;
76636;SDS011;65532;52.124;5.480;2024-02-15T12:15:01;5.47;;;1.70;;
76636;SDS011;65532;52.124;5.480;2024-02-15T12:17:47;5.32;;;1.50;;
76636;SDS011;65532;52.124;5.480;2024-02-15T12:20:33;10.13;;;2.08;;
76636;SDS011;65532;52.124;5.480;2024-02-15T12:23:01;4.00;;;1.75;;
76636;SDS011;65532;52.124;5.480;2024-02-15T12:25:28;4.95;;;1.83;;
76636;SDS011;65532;52.124;5.480;2024-02-15T12:27:55;8.77;;;1.80;;
76636;SDS011;65532;52.124;5.480;2024-02-15T12:30:22;4.75;;;2.13;;
76636;SDS011;65532;52.124;5.480;2024-02-15T12:32:51;5.25;;;2.00;;
76636;SDS011;65532;52.124;5.480;2024-02-15T12:35:21;6.38;;;1.60;;
76636;SDS011;65532;52.124;5.480;2024-02-15T12:40:30;3.25;;;1.40;;
76636;SDS011;65532;52.124;5.480;2024-02-15T12:42:58;6.10;;;2.13;;
76636;SDS011;65532;52.124;5.480;2024-02-15T12:45:26;5.82;;;1.38;;
76636;SDS011;65532;52.124;5.480;2024-02-15T12:47:54;8.40;;;2.63;;
76636;SDS011;65532;52.124;5.480;2024-02-15T12:50:22;6.20;;;1.98;;
76636;SDS011;65532;52.124;5.480;2024-02-15T12:52:50;3.17;;;1.42;;
76636;SDS011;65532;52.124;5.480;2024-02-15T12:55:20;7.47;;;2.53;;
76636;SDS011;65532;52.124;5.480;2024-02-15T12:57:48;5.68;;;1.73;;
76636;SDS011;65532;52.124;5.480;2024-02-15T13:00:21;4.55;;;1.75;;
76636;SDS011;65532;52.124;5.480;2024-02-15T13:02:55;4.35;;;2.08;;
76636;SDS011;65532;52.124;5.480;2024-02-15T13:05:22;6.00;;;1.98;;
76636;SDS011;65532;52.124;5.480;2024-02-15T13:07:54;4.53;;;1.30;;
76636;SDS011;65532;52.124;5.480;2024-02-15T13:10:22;4.55;;;1.70;;
76636;SDS011;65532;52.124;5.480;2024-02-15T13:12:48;3.15;;;1.52;;
76636;SDS011;65532;52.124;5.480;2024-02-15T13:15:17;6.80;;;1.42;;
76636;SDS011;65532;52.124;5.480;2024-02-15T13:17:46;4.53;;;1.40;;
76636;SDS011;65532;52.124;5.480;2024-02-15T13:20:20;3.30;;;1.13;;
76636;SDS011;65532;52.124;5.480;2024-02-15T13:22:56;4.22;;;1.60;;
76636;SDS011;65532;52.124;5.480;2024-02-15T13:25:37;3.05;;;1.55;;
76636;SDS011;65532;52.124;5.480;2024-02-15T13:28:06;5.25;;;1.42;;
76636;SDS011;65532;52.124;5.480;2024-02-15T13:30:35;5.32;;;1.45;;
76636;SDS011;65532;52.124;5.480;2024-02-15T13:33:02;5.47;;;0.95;;
76636;SDS011;65532;52.124;5.480;2024-02-15T13:35:29;7.28;;;1.67;;
76636;SDS011;65532;52.124;5.480;2024-02-15T13:37:55;5.85;;;1.10;;
76636;SDS011;65532;52.124;5.480;2024-02-15T13:40:25;3.13;;;0.90;;
76636;SDS011;65532;52.124;5.480;2024-02-15T13:42:54;3.78;;;0.75;;
76636;SDS011;65532;52.124;5.480;2024-02-15T13:45:38;3.97;;;1.15;;
76636;SDS011;65532;52.124;5.480;2024-02-15T13:48:06;2.80;;;1.17;;
76636;SDS011;65532;52.124;5.480;2024-02-15T13:50:34;3.92;;;1.10;;
76636;SDS011;65532;52.124;5.480;2024-02-15T13:53:02;3.65;;;0.75;;
76636;SDS011;65532;52.124;5.480;2024-02-15T13:55:29;4.93;;;1.25;;
76636;SDS011;65532;52.124;5.480;2024-02-15T13:57:56;5.50;;;1.15;;
76636;SDS011;65532;52.124;5.480;2024-02-15T14:00:23;4.43;;;0.90;;
76636;SDS011;65532;52.124;5.480;2024-02-15T14:02:56;4.68;;;1.98;;
76636;SDS011;65532;52.124;5.480;2024-02-15T14:05:25;4.40;;;1.45;;
76636;SDS011;65532;52.124;5.480;2024-02-15T14:07:55;5.22;;;1.92;;
76636;SDS011;65532;52.124;5.480;2024-02-15T14:10:27;5.47;;;1.58;;
76636;SDS011;65532;52.124;5.480;2024-02-15T14:12:55;5.20;;;1.25;;
76636;SDS011;65532;52.124;5.480;2024-02-15T14:15:24;4.70;;;1.13;;
76636;SDS011;65532;52.124;5.480;2024-02-15T14:17:52;3.72;;;0.98;;
76636;SDS011;65532;52.124;5.480;2024-02-15T14:20:18;5.65;;;1.52;;
76636;SDS011;65532;52.124;5.480;2024-02-15T14:22:48;4.80;;;0.80;;
76636;SDS011;65532;52.124;5.480;2024-02-15T14:25:16;2.83;;;1.27;;
76636;SDS011;65532;52.124;5.480;2024-02-15T14:27:43;8.02;;;0.90;;
76636;SDS011;65532;52.124;5.480;2024-02-15T14:30:09;4.18;;;1.73;;
76636;SDS011;65532;52.124;5.480;2024-02-15T14:32:54;3.83;;;0.80;;
76636;SDS011;65532;52.124;5.480;2024-02-15T14:35:31;3.67;;;1.50;;
76636;SDS011;65532;52.124;5.480;2024-02-15T14:38:02;3.58;;;0.70;;
76636;SDS011;65532;52.124;5.480;2024-02-15T14:40:32;2.85;;;0.65;;
76636;SDS011;65532;52.124;5.480;2024-02-15T14:43:03;3.20;;;1.10;;
76636;SDS011;65532;52.124;5.480;2024-02-15T14:45:33;5.13;;;1.25;;
76636;SDS011;65532;52.124;5.480;2024-02-15T14:48:01;5.03;;;1.00;;
76636;SDS011;65532;52.124;5.480;2024-02-15T14:50:29;2.63;;;1.30;;
76636;SDS011;65532;52.124;5.480;2024-02-15T14:52:56;3.88;;;0.93;;
76636;SDS011;65532;52.124;5.480;2024-02-15T14:55:23;4.70;;;1.17;;
76636;SDS011;65532;52.124;5.480;2024-02-15T14:57:50;4.85;;;0.73;;
76636;SDS011;65532;52.124;5.480;2024-02-15T15:00:16;3.67;;;1.10;;
76636;SDS011;65532;52.124;5.480;2024-02-15T15:02:46;2.83;;;1.58;;
76636;SDS011;65532;52.124;5.480;2024-02-15T15:05:13;3.67;;;1.30;;
76636;SDS011;65532;52.124;5.480;2024-02-15T15:07:59;7.50;;;0.85;;
76636;SDS011;65532;52.124;5.480;2024-02-15T15:10:45;4.32;;;1.58;;
76636;SDS011;65532;52.124;5.480;2024-02-15T15:13:34;2.35;;;0.68;;
76636;SDS011;65532;52.124;5.480;2024-02-15T15:16:01;7.90;;;1.42;;
76636;SDS011;65532;52.124;5.480;2024-02-15T15:18:29;8.82;;;1.83;;
76636;SDS011;65532;52.124;5.480;2024-02-15T15:20:59;5.25;;;0.90;;
76636;SDS011;65532;52.124;5.480;2024-02-15T15:23:26;3.13;;;1.00;;